createdAt,value
2018-07-26T00:00:35.138Z,16.63
2018-07-26T00:03:06.169Z,15.73
2018-07-26T00:05:37.370Z,17.00
2018-07-26T00:08:08.369Z,16.17
2018-07-26T00:10:39.267Z,16.37
2018-07-26T00:13:10.636Z,15.97
2018-07-26T00:15:41.727Z,16.33
2018-07-26T00:18:12.714Z,16.27
2018-07-26T00:20:43.514Z,16.73
2018-07-26T00:23:14.706Z,16.10
2018-07-26T00:25:45.721Z,16.50
2018-07-26T00:28:17.232Z,17.30
2018-07-26T00:30:48.453Z,16.70
2018-07-26T00:33:19.171Z,15.73
2018-07-26T00:35:50.087Z,16.20
2018-07-26T00:38:20.862Z,17.63
2018-07-26T00:40:51.663Z,15.37
2018-07-26T00:43:22.666Z,15.73
2018-07-26T00:45:53.759Z,14.93
2018-07-26T00:48:25.612Z,17.17
2018-07-26T00:50:56.625Z,15.63
2018-07-26T00:53:27.592Z,15.50
2018-07-26T00:55:59.419Z,15.83
2018-07-26T00:58:30.505Z,16.40
2018-07-26T01:01:01.328Z,16.00
2018-07-26T01:03:32.382Z,15.90
2018-07-26T01:06:03.228Z,15.17
2018-07-26T01:08:34.034Z,16.63
2018-07-26T01:11:04.895Z,15.97
2018-07-26T01:13:35.716Z,16.13
2018-07-26T01:16:06.549Z,17.23
2018-07-26T01:18:38.319Z,17.00
2018-07-26T01:21:09.200Z,16.87
2018-07-26T01:23:40.565Z,17.50
2018-07-26T01:26:12.100Z,18.63
2018-07-26T01:28:43.840Z,19.30
2018-07-26T01:31:14.749Z,18.13
2018-07-26T01:33:45.729Z,18.20
2018-07-26T01:36:16.862Z,17.40
2018-07-26T01:38:47.773Z,17.73
2018-07-26T01:41:18.865Z,18.30
2018-07-26T01:44:00.420Z,18.37
2018-07-26T01:46:31.329Z,18.90
2018-07-26T01:49:03.027Z,18.60
2018-07-26T01:51:33.685Z,17.60
2018-07-26T01:54:04.752Z,17.90
2018-07-26T01:56:35.579Z,18.10
2018-07-26T01:59:07.453Z,18.17
2018-07-26T02:01:38.582Z,17.93
2018-07-26T02:04:09.694Z,17.60
2018-07-26T02:06:40.679Z,16.60
2018-07-26T02:09:12.599Z,16.37
2018-07-26T02:11:43.940Z,18.00
2018-07-26T02:14:19.844Z,16.60
2018-07-26T02:16:50.691Z,16.83
2018-07-26T02:19:21.898Z,18.43
2018-07-26T02:21:53.138Z,16.70
2018-07-26T02:24:24.131Z,16.10
2018-07-26T02:26:55.128Z,14.90
2018-07-26T02:29:26.752Z,15.73
2018-07-26T02:31:59.144Z,14.47
2018-07-26T02:34:30.231Z,14.73
2018-07-26T02:37:03.278Z,12.63
2018-07-26T02:39:35.273Z,14.30
2018-07-26T02:42:06.425Z,14.47
2018-07-26T02:44:37.527Z,12.93
2018-07-26T02:47:08.515Z,12.93
2018-07-26T02:49:39.510Z,12.40
2018-07-26T02:52:10.615Z,11.47
2018-07-26T02:54:41.409Z,12.97
2018-07-26T02:57:12.630Z,11.73
2018-07-26T02:59:44.480Z,12.60
2018-07-26T03:02:17.030Z,12.40
2018-07-26T03:04:48.270Z,12.80
2018-07-26T03:07:19.259Z,12.53
2018-07-26T03:09:50.253Z,11.83
2018-07-26T03:12:21.475Z,13.73
2018-07-26T03:14:52.359Z,12.83
2018-07-26T03:17:24.241Z,11.60
2018-07-26T03:19:56.533Z,12.70
2018-07-26T03:22:27.733Z,12.63
2018-07-26T03:24:58.938Z,12.90
2018-07-26T03:27:30.237Z,12.43
2018-07-26T03:30:02.204Z,12.70
2018-07-26T03:32:33.505Z,12.40
2018-07-26T03:35:04.828Z,11.23
2018-07-26T03:37:36.093Z,11.70
2018-07-26T03:40:08.251Z,13.80
2018-07-26T03:42:39.408Z,12.13
2018-07-26T03:45:10.456Z,11.80
2018-07-26T03:47:43.217Z,11.03
2018-07-26T03:50:14.413Z,11.27
2018-07-26T03:52:45.313Z,12.33
2018-07-26T03:55:16.292Z,11.83
2018-07-26T03:57:47.730Z,10.40
2018-07-26T04:00:19.524Z,11.63
2018-07-26T04:02:50.665Z,10.77
2018-07-26T04:05:21.732Z,10.83
2018-07-26T04:07:54.257Z,11.50
2018-07-26T04:10:25.822Z,11.07
2018-07-26T04:12:56.524Z,11.47
2018-07-26T04:15:28.712Z,11.03
2018-07-26T04:18:05.392Z,11.07
2018-07-26T04:20:36.542Z,11.63
2018-07-26T04:23:08.570Z,10.80
2018-07-26T04:25:39.631Z,12.80
2018-07-26T04:28:10.461Z,11.90
2018-07-26T04:30:43.143Z,11.43
2018-07-26T04:33:13.987Z,12.40
2018-07-26T04:35:45.314Z,13.03
2018-07-26T04:38:16.131Z,13.93
2018-07-26T04:40:47.285Z,12.70
2018-07-26T04:43:18.151Z,11.23
2018-07-26T04:45:49.259Z,11.17
2018-07-26T04:48:20.141Z,12.37
2018-07-26T04:50:51.874Z,11.30
2018-07-26T04:53:24.246Z,12.10
2018-07-26T04:55:55.371Z,12.03
2018-07-26T04:58:26.250Z,12.53
2018-07-26T05:00:58.149Z,11.60
2018-07-26T05:03:29.273Z,11.60
2018-07-26T05:06:00.321Z,11.93
2018-07-26T05:08:31.438Z,12.17
2018-07-26T05:11:02.437Z,11.00
2018-07-26T05:13:33.384Z,10.50
2018-07-26T05:16:04.415Z,11.80
2018-07-26T05:18:35.428Z,11.83
2018-07-26T05:21:06.334Z,11.50
2018-07-26T05:23:37.428Z,11.50
2018-07-26T05:26:09.788Z,10.90
2018-07-26T05:28:40.900Z,10.83
2018-07-26T05:33:57.614Z,10.70
2018-07-26T05:36:28.619Z,11.10
2018-07-26T05:38:59.743Z,11.40
2018-07-26T05:41:30.991Z,11.10
2018-07-26T05:44:02.059Z,11.23
2018-07-26T05:46:33.253Z,11.13
2018-07-26T05:49:04.425Z,11.00
2018-07-26T05:51:35.412Z,11.20
2018-07-26T05:54:06.717Z,11.53
2018-07-26T05:56:37.854Z,11.43
2018-07-26T05:59:10.877Z,11.27
2018-07-26T06:01:42.658Z,12.43
2018-07-26T06:04:14.744Z,11.83
2018-07-26T06:06:46.190Z,12.10
2018-07-26T06:09:17.140Z,10.40
2018-07-26T06:11:48.380Z,11.60
2018-07-26T06:14:19.503Z,10.50
2018-07-26T06:16:51.512Z,9.77
2018-07-26T06:19:22.356Z,9.97
2018-07-26T06:21:53.597Z,10.23
2018-07-26T06:24:24.379Z,10.40
2018-07-26T06:26:55.846Z,10.97
2018-07-26T06:29:27.088Z,10.60
2018-07-26T06:31:59.033Z,11.07
2018-07-26T06:34:30.036Z,10.90
2018-07-26T06:37:01.406Z,11.63
2018-07-26T06:39:32.640Z,10.80
2018-07-26T06:42:04.682Z,12.23
2018-07-26T06:44:35.824Z,12.00
2018-07-26T06:47:08.022Z,12.87
2018-07-26T06:49:39.114Z,12.53
2018-07-26T06:52:10.111Z,11.80
2018-07-26T06:54:41.057Z,12.37
2018-07-26T06:57:12.105Z,12.93
2018-07-26T06:59:46.092Z,13.30
2018-07-26T07:02:17.996Z,11.87
2018-07-26T07:04:49.406Z,12.10
2018-07-26T07:07:20.670Z,13.47
2018-07-26T07:09:51.975Z,12.20
2018-07-26T07:12:22.961Z,13.00
2018-07-26T07:14:54.393Z,12.30
2018-07-26T07:17:26.259Z,12.63
2018-07-26T07:19:57.714Z,12.27
2018-07-26T07:22:28.834Z,12.20
2018-07-26T07:24:59.565Z,12.17
2018-07-26T07:27:30.720Z,12.53
2018-07-26T07:30:03.355Z,12.33
2018-07-26T07:32:35.427Z,12.90
2018-07-26T07:35:06.704Z,12.30
2018-07-26T07:37:38.317Z,12.67
2018-07-26T07:40:10.179Z,11.43
2018-07-26T07:42:41.269Z,11.53
2018-07-26T07:45:12.517Z,12.40
2018-07-26T07:47:43.748Z,11.20
2018-07-26T07:50:14.859Z,11.47
2018-07-26T07:52:45.924Z,12.43
2018-07-26T07:55:18.843Z,11.10
2018-07-26T07:57:50.742Z,11.33
2018-07-26T08:00:21.793Z,11.87
2018-07-26T08:02:55.334Z,10.70
2018-07-26T08:05:26.614Z,11.60
2018-07-26T08:07:58.528Z,10.70
2018-07-26T08:10:30.597Z,10.23
2018-07-26T08:13:02.021Z,11.30
2018-07-26T08:15:33.146Z,10.90
2018-07-26T08:18:04.403Z,11.03
2018-07-26T08:20:35.586Z,11.10
2018-07-26T08:23:06.945Z,10.93
2018-07-26T08:25:38.036Z,11.03
2018-07-26T08:28:09.886Z,11.80
2018-07-26T08:30:40.890Z,10.97
2018-07-26T08:33:12.395Z,12.17
2018-07-26T08:35:43.456Z,10.80
2018-07-26T08:38:14.911Z,11.27
2018-07-26T08:40:46.045Z,11.10
2018-07-26T08:43:17.177Z,11.33
2018-07-26T08:45:48.196Z,11.20
2018-07-26T08:48:19.604Z,10.80
2018-07-26T08:50:51.594Z,10.40
2018-07-26T08:53:22.752Z,10.07
2018-07-26T08:55:53.998Z,10.87
2018-07-26T08:58:25.186Z,10.83
2018-07-26T09:00:57.329Z,11.80
2018-07-26T09:03:28.176Z,10.70
2018-07-26T09:05:59.326Z,11.77
2018-07-26T09:08:30.847Z,11.03
2018-07-26T09:11:02.718Z,12.20
2018-07-26T09:13:33.995Z,11.67
2018-07-26T09:16:05.780Z,11.10
2018-07-26T09:18:36.790Z,11.63
2018-07-26T09:21:08.601Z,10.70
2018-07-26T09:23:39.498Z,12.53
2018-07-26T09:26:10.841Z,11.20
2018-07-26T09:28:41.978Z,12.17
2018-07-26T09:31:13.332Z,11.90
2018-07-26T09:33:44.744Z,11.70
2018-07-26T09:36:16.033Z,11.53
2018-07-26T09:38:47.280Z,11.30
2018-07-26T09:41:19.634Z,11.10
2018-07-26T09:43:50.808Z,11.30
2018-07-26T09:46:22.233Z,11.80
2018-07-26T09:48:53.466Z,11.13
2018-07-26T09:51:25.281Z,10.57
2018-07-26T09:53:56.528Z,11.20
2018-07-26T09:56:27.549Z,10.77
2018-07-26T09:58:58.837Z,10.10
2018-07-26T10:01:31.872Z,11.73
2018-07-26T10:04:03.533Z,10.80
2018-07-26T10:06:36.843Z,10.60
2018-07-26T10:09:12.925Z,9.60
2018-07-26T10:11:44.522Z,10.43
2018-07-26T10:14:16.027Z,11.60
2018-07-26T10:16:46.997Z,11.80
2018-07-26T10:19:17.932Z,11.00
2018-07-26T10:21:48.962Z,11.00
2018-07-26T10:24:20.090Z,10.87
2018-07-26T10:26:52.231Z,10.17
2018-07-26T10:29:24.548Z,10.70
2018-07-26T10:31:55.848Z,10.80
2018-07-26T10:34:26.791Z,12.73
2018-07-26T10:36:58.015Z,10.60
2018-07-26T10:39:29.754Z,11.10
2018-07-26T10:42:00.767Z,11.00
2018-07-26T10:44:31.677Z,11.40
2018-07-26T10:47:03.728Z,11.03
2018-07-26T10:49:41.645Z,10.30
2018-07-26T10:52:13.788Z,10.30
2018-07-26T10:54:44.679Z,10.20
2018-07-26T10:57:15.985Z,11.63
2018-07-26T10:59:47.057Z,10.33
2018-07-26T11:02:18.449Z,10.60
2018-07-26T11:04:49.524Z,10.60
2018-07-26T11:07:20.685Z,11.07
2018-07-26T11:09:51.808Z,10.67
2018-07-26T11:12:22.750Z,9.67
2018-07-26T11:14:55.102Z,9.93
2018-07-26T11:17:25.924Z,9.20
2018-07-26T11:19:56.945Z,9.83
2018-07-26T11:22:28.243Z,9.93
2018-07-26T11:25:00.126Z,9.50
2018-07-26T11:27:31.198Z,9.23
2018-07-26T11:30:05.263Z,9.53
2018-07-26T11:32:36.690Z,9.73
2018-07-26T11:35:09.239Z,9.83
2018-07-26T11:37:41.426Z,9.17
2018-07-26T11:40:12.798Z,9.07
2018-07-26T11:42:44.123Z,9.63
2018-07-26T11:45:17.068Z,9.60
2018-07-26T11:47:48.342Z,10.13
2018-07-26T11:50:19.900Z,9.33
2018-07-26T11:52:50.943Z,9.90
2018-07-26T11:55:22.235Z,10.47
2018-07-26T11:57:54.636Z,10.70
2018-07-26T12:00:25.731Z,10.57
2018-07-26T12:02:57.551Z,11.03
2018-07-26T12:05:32.633Z,10.27
2018-07-26T12:08:04.024Z,10.30
2018-07-26T12:10:35.928Z,10.57
2018-07-26T12:13:06.927Z,10.70
2018-07-26T12:15:37.977Z,10.20
2018-07-26T12:18:09.322Z,10.57
2018-07-26T12:20:40.577Z,11.40
2018-07-26T12:23:12.633Z,10.63
2018-07-26T12:25:43.856Z,11.30
2018-07-26T12:28:15.348Z,10.97
2018-07-26T12:30:46.456Z,11.60
2018-07-26T12:33:17.944Z,11.80
2018-07-26T12:35:49.968Z,11.60
2018-07-26T12:38:27.287Z,10.93
2018-07-26T12:40:58.757Z,11.37
2018-07-26T12:43:30.813Z,11.20
2018-07-26T12:46:02.336Z,10.40
2018-07-26T12:48:33.531Z,11.03
2018-07-26T12:51:04.665Z,10.70
2018-07-26T12:53:36.613Z,10.97
2018-07-26T12:56:07.893Z,9.80
2018-07-26T12:58:39.350Z,10.17
2018-07-26T13:01:10.615Z,10.50
2018-07-26T13:03:45.753Z,10.70
2018-07-26T13:06:19.530Z,10.13
2018-07-26T13:08:51.843Z,10.93
2018-07-26T13:11:28.711Z,10.87
2018-07-26T13:14:00.599Z,11.23
2018-07-26T13:16:31.655Z,10.83
2018-07-26T13:19:03.282Z,10.20
2018-07-26T13:21:47.977Z,10.83
2018-07-26T13:24:26.081Z,10.70
2018-07-26T13:26:57.996Z,10.40
2018-07-26T13:29:30.741Z,9.90
2018-07-26T13:32:01.957Z,9.70
2018-07-26T13:34:32.917Z,9.70
2018-07-26T13:37:03.960Z,10.30
2018-07-26T13:39:35.838Z,9.50
2018-07-26T13:42:07.666Z,9.60
2018-07-26T13:44:39.073Z,10.00
2018-07-26T13:47:10.297Z,10.30
2018-07-26T13:49:41.822Z,11.40
2018-07-26T13:52:12.710Z,10.40
2018-07-26T13:54:46.357Z,9.17
2018-07-26T13:57:17.857Z,9.70
2018-07-26T13:59:49.516Z,9.47
2018-07-26T14:02:20.669Z,9.37
2018-07-26T14:04:52.879Z,9.50
2018-07-26T14:07:24.194Z,9.60
2018-07-26T14:09:55.556Z,9.60
2018-07-26T14:12:26.709Z,9.73
2018-07-26T14:14:58.096Z,10.10
2018-07-26T14:17:29.205Z,9.77
2018-07-26T14:20:00.354Z,10.43
2018-07-26T14:22:31.573Z,10.70
2018-07-26T14:25:02.829Z,10.57
2018-07-26T14:27:33.966Z,11.57
2018-07-26T14:30:06.135Z,11.60
2018-07-26T14:32:38.932Z,11.50
2018-07-26T14:35:10.000Z,11.73
2018-07-26T14:37:41.400Z,12.50
2018-07-26T14:40:12.504Z,12.90
2018-07-26T14:42:44.008Z,13.33
2018-07-26T14:45:16.263Z,14.90
2018-07-26T14:47:47.944Z,14.67
2018-07-26T14:50:19.342Z,10.70
2018-07-26T14:52:50.943Z,6.67
2018-07-26T14:55:22.498Z,9.10
2018-07-26T14:57:54.888Z,11.37
2018-07-26T15:00:26.228Z,13.33
2018-07-26T15:03:02.098Z,11.97
2018-07-26T15:05:33.484Z,12.97
2018-07-26T15:08:05.123Z,14.67
2018-07-26T15:10:36.962Z,17.50
2018-07-26T15:13:09.274Z,18.23
2018-07-26T15:15:44.448Z,13.63
2018-07-26T15:18:15.568Z,9.67
2018-07-26T15:20:46.974Z,9.90
2018-07-26T15:23:18.072Z,8.60
2018-07-26T15:25:49.076Z,8.70
2018-07-26T15:28:20.505Z,10.43
2018-07-26T15:30:53.121Z,10.40
2018-07-26T15:33:24.159Z,9.80
2018-07-26T15:35:55.202Z,9.60
2018-07-26T15:38:26.457Z,11.50
2018-07-26T15:40:59.302Z,10.30
2018-07-26T15:43:30.824Z,8.90
2018-07-26T15:46:01.726Z,8.50
2018-07-26T15:48:32.726Z,10.00
2018-07-26T15:51:04.080Z,11.00
2018-07-26T15:53:35.387Z,11.60
2018-07-26T15:56:06.600Z,12.67
2018-07-26T15:58:37.403Z,13.87
2018-07-26T16:01:08.661Z,15.23
2018-07-26T16:03:39.883Z,16.87
2018-07-26T16:06:10.767Z,17.77
2018-07-26T16:08:41.899Z,18.00
2018-07-26T16:11:13.227Z,17.23
2018-07-26T16:13:44.609Z,18.50
2018-07-26T16:16:16.628Z,20.90
2018-07-26T16:18:48.078Z,20.13
2018-07-26T16:21:19.300Z,19.37
2018-07-26T16:23:51.420Z,21.13
2018-07-26T16:26:23.779Z,22.07
2018-07-26T16:28:54.829Z,22.70
2018-07-26T16:31:26.681Z,23.83
2018-07-26T16:33:59.063Z,23.43
2018-07-26T16:36:30.148Z,24.47
2018-07-26T16:39:01.355Z,26.03
2018-07-26T16:41:32.530Z,29.67
2018-07-26T16:44:03.850Z,31.73
2018-07-26T16:46:36.014Z,27.60
2018-07-26T16:49:08.391Z,26.80
2018-07-26T16:51:40.645Z,26.93
2018-07-26T16:54:13.118Z,24.30
2018-07-26T16:56:44.843Z,24.80
2018-07-26T16:59:15.972Z,22.60
2018-07-26T17:01:47.593Z,21.27
2018-07-26T17:04:19.340Z,20.93
2018-07-26T17:06:51.006Z,24.30
2018-07-26T17:09:22.191Z,19.73
2018-07-26T17:11:54.079Z,20.40
2018-07-26T17:14:26.087Z,22.00
2018-07-26T17:16:58.755Z,20.60
2018-07-26T17:19:32.897Z,22.07
2018-07-26T17:22:04.552Z,24.60
2018-07-26T17:24:36.443Z,23.30
2018-07-26T17:27:08.074Z,25.20
2018-07-26T17:29:42.036Z,26.30
2018-07-26T17:32:13.532Z,25.03
2018-07-26T17:34:45.469Z,25.20
2018-07-26T17:37:18.034Z,24.17
2018-07-26T17:39:50.713Z,26.17
2018-07-26T17:42:22.537Z,25.10
2018-07-26T17:44:53.730Z,24.60
2018-07-26T17:47:24.933Z,26.07
2018-07-26T17:49:56.377Z,26.40
2018-07-26T17:52:27.733Z,26.70
2018-07-26T17:54:59.213Z,27.57
2018-07-26T17:57:32.536Z,29.03
2018-07-26T18:00:06.851Z,29.30
2018-07-26T18:02:38.833Z,25.43
2018-07-26T18:05:11.226Z,23.40
2018-07-26T18:07:42.964Z,25.37
2018-07-26T18:10:14.112Z,24.10
2018-07-26T18:12:46.476Z,23.47
2018-07-26T18:15:19.534Z,23.60
2018-07-26T18:17:52.722Z,21.70
2018-07-26T18:20:25.712Z,25.03
2018-07-26T18:22:56.970Z,22.00
2018-07-26T18:25:30.350Z,23.00
2018-07-26T18:28:01.878Z,24.37
2018-07-26T18:30:38.188Z,22.13
2018-07-26T18:33:10.112Z,20.87
2018-07-26T18:35:41.411Z,22.00
2018-07-26T18:38:14.361Z,22.70
2018-07-26T18:40:46.548Z,22.80
2018-07-26T18:43:18.007Z,20.70
2018-07-26T18:45:49.605Z,22.10
2018-07-26T18:48:21.138Z,23.50
2018-07-26T18:50:53.053Z,23.17
2018-07-26T18:53:24.483Z,22.17
2018-07-26T18:55:56.403Z,20.10
2018-07-26T18:58:29.197Z,22.53
2018-07-26T19:01:00.592Z,20.97
2018-07-26T19:03:31.778Z,21.83
2018-07-26T19:06:04.077Z,21.63
2018-07-26T19:08:36.281Z,21.40
2018-07-26T19:11:08.051Z,20.47
2018-07-26T19:13:39.387Z,20.40
2018-07-26T19:16:12.037Z,21.30
2018-07-26T19:18:44.808Z,22.73
2018-07-26T19:21:17.086Z,22.80
2018-07-26T19:23:49.094Z,23.30
2018-07-26T19:26:20.502Z,23.30
2018-07-26T19:28:52.381Z,24.50
2018-07-26T19:31:25.502Z,25.90
2018-07-26T19:33:56.706Z,25.30
2018-07-26T19:36:28.032Z,25.60
2018-07-26T19:38:59.279Z,25.37
2018-07-26T19:41:31.754Z,23.90
2018-07-26T19:44:06.764Z,24.97
2018-07-26T19:46:41.600Z,22.97
2018-07-26T19:49:13.071Z,22.63
2018-07-26T19:51:43.998Z,25.00
2018-07-26T19:54:17.597Z,26.30
2018-07-26T19:56:49.312Z,24.47
2018-07-26T19:59:20.709Z,23.90
2018-07-26T20:01:51.999Z,26.27
2018-07-26T20:04:25.232Z,25.43
2018-07-26T20:06:56.664Z,25.93
2018-07-26T20:09:28.137Z,25.30
2018-07-26T20:12:00.452Z,27.30
2018-07-26T20:14:31.695Z,27.63
2018-07-26T20:17:03.081Z,26.03
2018-07-26T20:19:35.813Z,26.60
2018-07-26T20:22:07.531Z,27.60
2018-07-26T20:24:40.937Z,25.00
2018-07-26T20:27:12.287Z,25.30
2018-07-26T20:29:43.471Z,24.93
2018-07-26T20:32:22.047Z,23.40
2018-07-26T20:34:53.237Z,23.40
2018-07-26T20:37:24.258Z,23.30
2018-07-26T20:39:55.333Z,22.20
2018-07-26T20:42:28.824Z,24.13
2018-07-26T20:45:02.078Z,23.27
2018-07-26T20:47:33.478Z,24.80
2018-07-26T20:50:08.374Z,23.83
2018-07-26T20:52:40.045Z,24.90
2018-07-26T20:55:11.652Z,24.40
2018-07-26T20:57:43.151Z,24.00
2018-07-26T21:00:15.149Z,24.37
2018-07-26T21:02:46.325Z,25.90
2018-07-26T21:05:18.090Z,23.90
2018-07-26T21:07:50.838Z,26.30
2018-07-26T21:10:23.005Z,26.47
2018-07-26T21:12:54.275Z,26.20
2018-07-26T21:15:25.499Z,23.13
2018-07-26T21:17:56.774Z,25.30
2018-07-26T21:20:28.923Z,25.40
2018-07-26T21:23:00.223Z,24.17
2018-07-26T21:25:32.186Z,23.17
2018-07-26T21:28:03.103Z,21.80
2018-07-26T21:30:34.429Z,22.37
2018-07-26T21:33:06.571Z,23.23
2018-07-26T21:35:37.964Z,22.13
2018-07-26T21:38:09.054Z,24.13
2018-07-26T21:40:40.787Z,24.13
2018-07-26T21:43:12.160Z,23.17
2018-07-26T21:45:43.249Z,23.87
2018-07-26T21:48:15.262Z,22.80
2018-07-26T21:50:46.714Z,22.07
2018-07-26T21:53:17.810Z,22.67
2018-07-26T21:55:51.905Z,24.40
2018-07-26T21:58:23.259Z,22.73
2018-07-26T22:00:59.207Z,24.33
2018-07-26T22:03:31.077Z,23.77
2018-07-26T22:06:02.399Z,23.30
2018-07-26T22:08:35.198Z,23.47
2018-07-26T22:11:12.439Z,22.17
2018-07-26T22:13:43.683Z,23.40
2018-07-26T22:16:14.831Z,23.10
2018-07-26T22:18:45.935Z,23.00
2018-07-26T22:21:17.176Z,23.17
2018-07-26T22:23:48.867Z,24.80
2018-07-26T22:26:20.026Z,23.97
2018-07-26T22:28:51.231Z,22.93
2018-07-26T22:31:22.691Z,23.10
2018-07-26T22:33:53.651Z,26.37
2018-07-26T22:36:25.167Z,23.60
2018-07-26T22:38:56.010Z,23.77
2018-07-26T22:41:27.099Z,23.87
2018-07-26T22:43:58.291Z,23.40
2018-07-26T22:46:29.374Z,23.90
2018-07-26T22:49:00.332Z,24.00
2018-07-26T22:51:32.078Z,24.67
2018-07-26T22:54:03.976Z,24.13
2018-07-26T22:56:35.354Z,24.57
2018-07-26T22:59:06.312Z,23.37
2018-07-26T23:01:37.643Z,23.30
2018-07-26T23:04:09.017Z,23.67
2018-07-26T23:06:40.084Z,22.50
2018-07-26T23:09:12.698Z,22.37
2018-07-26T23:11:44.322Z,22.10
2018-07-26T23:14:15.615Z,22.40
2018-07-26T23:16:46.944Z,22.37
2018-07-26T23:19:18.723Z,22.97
2018-07-26T23:21:52.357Z,21.43
2018-07-26T23:24:23.401Z,20.40
2018-07-26T23:26:54.434Z,20.20
2018-07-26T23:29:26.520Z,22.27
2018-07-26T23:31:57.556Z,21.57
2018-07-26T23:34:29.301Z,21.03
2018-07-26T23:37:02.110Z,20.03
2018-07-26T23:39:33.192Z,21.57
2018-07-26T23:42:05.263Z,21.43
2018-07-26T23:44:36.418Z,20.77
2018-07-26T23:47:07.682Z,20.90
2018-07-26T23:49:38.655Z,20.77
2018-07-26T23:52:09.847Z,20.57
2018-07-26T23:54:40.710Z,20.00
2018-07-26T23:57:12.799Z,19.43
2018-07-26T23:59:44.389Z,19.30
